Latest Weather Observations for Larapuna (Eddystone Point)

IDT60801

Issued at 12:35 pm EDT Tuesday 25 November 2014 (issued every 30 minutes, with the page automatically refreshed every 10 minutes)

About weather observations | Map of weather stations | Latest weather observations for TAS | Other Formats
Station Details ID: 092045 Name: LARAPUNA (EDDYSTONE POINT) Lat: -40.99 Lon: 148.35 Height: 19.7 m
Data from the previous 72 hours. | See also: Recent months at Larapuna (Eddystone Point)
Date/Time
EDT
Temp
°C
App
Temp
°C
Dew
Point
Rel
Hum
%
Delta-T
°C
Wind Press
QNH
hPa
Press
MSL
hPa
Rain
since 9 am
mm
Dir
 
Spd
km/h
Gust
km/h
Spd
kts
Gust
kts
25/12:32pm 18.1 10.4 8.7 54 4.9 WNW 39 61 21 33 1008.2 1008.2 0.0
25/12:30pm 17.9 10.2 8.5 54 4.9 WNW 39 56 21 30 1008.3 1008.3 0.0
25/12:05pm 18.7 12.3 8.7 52 5.2 WNW 32 50 17 27 1008.2 1008.2 0.0
25/12:00pm 18.4 11.6 9.2 55 4.8 WNW 35 50 19 27 1008.2 1008.2 0.0
25/11:30am 17.9 10.5 8.5 54 4.8 WNW 37 56 20 30 1007.9 1007.9 0.0
25/11:22am 17.4 10.9 8.8 57 4.4 WNW 33 52 18 28 1008.0 1008.0 0.0
25/11:00am 18.0 10.5 6.5 47 5.7 W 35 50 19 27 1007.7 1007.7 0.0
25/10:37am 17.4 11.3 6.6 49 5.3 WNW 28 46 15 25 1007.9 1007.9 0.0
25/10:30am 17.3 11.3 7.1 51 5.1 W 28 41 15 22 1007.9 1007.9 0.0
25/10:00am 16.2 11.2 8.2 59 4.1 WNW 24 32 13 17 1007.8 1007.8 0.0
25/09:30am 16.0 9.8 8.0 59 4.0 WNW 30 39 16 21 1007.5 1007.5 0.0
25/09:00am 15.4 8.8 7.9 61 3.8 W 32 41 17 22 1007.6 1007.6 3.6
25/08:30am 14.5 9.6 8.5 67 3.0 W 24 37 13 20 1007.3 1007.3 3.6
25/08:00am 14.0 10.1 8.6 70 2.7 W 19 30 10 16 1006.9 1006.9 3.6
25/07:30am 13.0 8.1 8.5 74 2.2 WNW 24 35 13 19 1006.5 1006.5 3.6
25/07:00am 12.1 8.5 8.2 77 1.9 WNW 17 28 9 15 1005.9 1005.9 3.6
25/06:30am 11.4 8.1 8.1 80 1.6 WNW 15 24 8 13 1005.6 1005.6 3.6
25/06:00am 11.1 7.0 8.0 81 1.5 WNW 19 26 10 14 1005.0 1005.0 3.6
25/05:30am 11.1 5.3 8.0 81 1.5 WNW 28 39 15 21 1004.3 1004.3 3.6
25/05:06am 11.0 4.7 7.5 79 1.7 WNW 30 48 16 26 1003.8 1003.8 3.6
25/05:00am 11.0 4.2 7.5 79 1.7 WNW 33 46 18 25 1003.6 1003.6 3.6
25/04:30am 11.1 3.8 7.2 77 1.9 W 35 59 19 32 1003.4 1003.4 3.6
25/04:01am 11.0 4.8 7.7 80 1.6 WNW 30 48 16 26 1003.6 1003.6 3.6
25/04:00am 11.0 4.3 7.5 79 1.7 WNW 32 48 17 26 1003.6 1003.6 3.6
25/03:58am 11.0 4.8 7.7 80 1.6 WNW 30 48 16 26 1003.6 1003.6 3.6
25/03:30am 10.5 4.1 6.8 78 1.7 W 30 44 16 24 1004.0 1004.0 3.6
25/03:00am 10.4 3.5 6.5 77 1.8 W 32 52 17 28 1003.9 1003.9 3.6
25/02:35am 10.2 3.3 6.5 78 1.7 W 32 50 17 27 1004.0 1004.0 3.6
25/02:30am 10.3 3.3 6.8 79 1.6 W 33 48 18 26 1004.0 1004.0 3.6
25/02:00am 10.3 4.2 6.8 79 1.7 W 28 44 15 24 1004.1 1004.1 3.6
25/01:33am 10.5 2.3 6.6 77 1.8 W 39 57 21 31 1003.7 1003.7 3.6
25/01:30am 10.5 2.7 6.6 77 1.8 W 37 54 20 29 1003.7 1003.7 3.6
25/01:13am 10.6 3.8 7.1 79 1.7 W 32 50 17 27 1003.9 1003.9 3.6
25/01:00am 10.9 4.3 7.6 80 1.6 W 32 46 17 25 1004.1 1004.1 3.6
25/12:30am 11.1 4.5 7.8 80 1.6 WNW 32 43 17 23 1004.7 1004.7 3.6
25/12:27am 11.2 4.6 7.7 79 1.7 WNW 32 50 17 27 1004.7 1004.7 3.6
25/12:00am 11.5 3.5 7.6 77 1.9 WNW 39 54 21 29 1004.3 1004.3 3.6
 
Date/Time
EDT
Temp
°C
App
Temp
°C
Dew
Point
Rel
Hum
%
Delta-T
°C
Wind Press
QNH
hPa
Press
MSL
hPa
Rain
since 9 am
mm
Dir
 
Spd
km/h
Gust
km/h
Spd
kts
Gust
kts
24/11:32pm 12.1 5.5 10.0 87 1.1 W 35 56 19 30 1003.8 1003.8 3.6
24/11:30pm 12.1 5.6 10.2 88 1.0 W 35 52 19 28 1003.8 1003.8 3.6
24/11:02pm 12.8 7.6 11.7 93 0.6 WNW 30 48 16 26 1003.9 1003.9 3.6
24/11:00pm 12.8 7.3 11.7 93 0.6 WNW 32 48 17 26 1003.8 1003.8 3.6
24/10:44pm 13.1 7.7 12.2 94 0.5 WNW 32 50 17 27 1004.0 1004.0 3.6
24/10:30pm 13.3 8.0 12.4 94 0.5 WNW 32 43 17 23 1004.2 1004.2 3.6
24/10:00pm 14.0 11.5 13.4 96 0.3 NW 19 28 10 15 1004.2 1004.2 3.6
24/09:30pm 14.4 12.4 13.9 97 0.3 WNW 17 22 9 12 1003.5 1003.5 3.6
24/09:00pm 14.8 11.2 14.3 97 0.3 WNW 26 35 14 19 1003.2 1003.2 3.6
24/08:30pm 15.1 10.9 14.6 97 0.3 NW 30 43 16 23 1002.9 1002.9 3.6
24/08:00pm 15.2 11.8 14.7 97 0.3 NW 26 35 14 19 1002.7 1002.7 3.6
24/07:30pm 15.4 10.9 14.9 97 0.3 NW 32 43 17 23 1002.8 1002.8 3.6
24/07:00pm 15.6 11.0 15.1 97 0.3 NW 33 48 18 26 1002.5 1002.5 3.6
24/06:40pm 15.5 11.8 14.9 96 0.3 NNW 28 46 15 25 1002.5 1002.5 3.6
24/06:30pm 15.2 12.5 14.6 96 0.3 NNW 22 30 12 16 1002.5 1002.5 3.6
24/06:00pm 14.8 10.0 14.0 95 0.5 NNW 32 41 17 22 1002.6 1002.6 3.6
24/05:30pm 14.5 9.5 13.5 94 0.6 N 32 44 17 24 1002.8 1002.8 3.6
24/05:21pm 14.4 9.4 13.4 94 0.6 N 32 50 17 27 1002.9 1002.9 3.6
24/05:00pm 14.1 8.7 12.8 92 0.7 N 33 46 18 25 1003.1 1003.1 3.4
24/04:30pm 14.2 8.2 12.2 88 1.1 N 35 46 19 25 1003.7 1003.7 3.0
24/04:00pm 14.6 7.2 12.6 88 1.1 N 43 54 23 29 1003.5 1003.5 3.0
24/03:30pm 13.8 8.3 12.4 91 0.8 N 33 44 18 24 1004.5 1004.5 2.8
24/03:00pm 13.6 9.9 12.7 94 0.5 N 24 30 13 16 1006.1 1006.1 2.8
24/02:30pm 13.8 8.6 12.7 93 0.6 N 32 41 17 22 1006.7 1006.7 2.6
24/02:00pm 14.3 10.4 13.2 93 0.6 N 26 32 14 17 1007.4 1007.4 2.0
24/01:30pm 14.4 10.8 13.1 92 0.7 N 24 30 13 16 1008.3 1008.3 1.8
24/01:00pm 14.4 10.8 13.0 91 0.8 N 24 30 13 16 1008.5 1008.5 1.8
24/12:30pm 14.1 11.9 12.1 88 1.1 N 15 20 8 11 1008.4 1008.4 1.4
24/12:00pm 14.9 11.0 12.2 84 1.5 N 24 28 13 15 1009.0 1009.0 0.6
24/11:30am 16.0 12.7 11.6 75 2.4 NW 20 28 11 15 1010.1 1010.1 0.2
24/11:00am 15.2 13.8 12.3 83 1.6 NW 11 17 6 9 1010.1 1010.1 0.2
24/10:30am 15.1 13.7 12.2 83 1.6 NNW 11 13 6 7 1009.7 1009.7 0.2
24/10:00am 15.3 15.1 13.1 87 1.2 WSW 6 11 3 6 1009.3 1009.3 0.2
24/09:30am 14.4 14.1 12.6 89 1.0 NW 6 11 3 6 1010.2 1010.2 0.2
24/09:00am 14.1 13.3 12.8 92 0.7 NW 9 15 5 8 1010.7 1010.7 0.2
24/08:30am 14.3 12.8 13.0 92 0.7 NW 13 15 7 8 1011.3 1011.3 0.0
24/08:00am 14.8 13.5 13.7 93 0.6 N 13 20 7 11 1010.8 1010.8 0.0
24/07:30am 13.7 14.2 12.8 94 0.5 W 2 7 1 4 1010.4 1010.4 0.0
24/07:00am 13.4 11.7 12.5 94 0.5 NNW 13 17 7 9 1011.2 1011.2 0.0
24/06:30am 12.6 10.6 11.5 93 0.6 NNW 13 17 7 9 1011.1 1011.1 0.0
24/06:00am 12.2 9.7 11.1 93 0.6 WNW 15 20 8 11 1010.9 1010.9 0.0
24/05:30am 12.2 9.3 11.1 93 0.6 NW 17 20 9 11 1010.8 1010.8 0.0
24/05:00am 12.4 9.5 11.0 91 0.7 NW 17 22 9 12 1010.9 1010.9 0.0
24/04:30am 12.6 9.4 11.2 91 0.7 WNW 19 24 10 13 1011.1 1011.1 0.0
24/04:00am 12.6 9.1 11.0 90 0.8 NW 20 24 11 13 1010.8 1010.8 0.0
24/03:30am 13.0 9.2 11.2 89 0.9 NW 22 28 12 15 1010.8 1010.8 0.0
24/03:00am 13.0 9.6 11.2 89 1.0 NW 20 28 11 15 1010.8 1010.8 0.0
24/02:30am 13.4 8.9 11.3 87 1.1 NW 26 30 14 16 1011.0 1011.0 0.0
24/02:00am 13.7 9.6 11.4 86 1.2 NW 24 30 13 16 1010.9 1010.9 0.0
24/01:30am 13.6 9.0 11.1 85 1.3 NW 26 32 14 17 1011.3 1011.3 0.0
24/01:00am 13.5 9.2 10.9 84 1.4 NW 24 28 13 15 1011.4 1011.4 0.0
24/12:30am 13.8 10.3 11.0 83 1.5 NW 20 28 11 15 1011.5 1011.5 0.0
24/12:00am 13.8 8.4 11.0 83 1.5 NW 30 35 16 19 1011.5 1011.5 0.0
 
Date/Time
EDT
Temp
°C
App
Temp
°C
Dew
Point
Rel
Hum
%
Delta-T
°C
Wind Press
QNH
hPa
Press
MSL
hPa
Rain
since 9 am
mm
Dir
 
Spd
km/h
Gust
km/h
Spd
kts
Gust
kts
23/11:30pm 13.9 9.3 10.9 82 1.6 NW 26 32 14 17 1011.6 1011.6 0.0
23/11:00pm 14.1 8.0 10.3 78 2.0 NW 33 41 18 22 1011.9 1011.9 0.0
23/10:30pm 14.2 9.0 10.2 77 2.1 NW 28 33 15 18 1011.6 1011.6 0.0
23/10:00pm 14.6 9.4 10.2 75 2.3 NW 28 35 15 19 1011.4 1011.4 0.0
23/09:30pm 15.3 10.4 9.9 70 2.8 WNW 26 37 14 20 1011.1 1011.1 0.0
23/09:00pm 15.0 10.6 10.4 74 2.4 NW 24 32 13 17 1011.1 1011.1 0.0
23/08:30pm 15.3 10.2 10.7 74 2.4 WNW 28 37 15 20 1010.8 1010.8 0.0
23/08:00pm 15.5 11.2 10.7 73 2.5 WNW 24 37 13 20 1010.9 1010.9 0.0
23/07:30pm 15.8 11.1 10.6 71 2.8 NW 26 35 14 19 1010.6 1010.6 0.0
23/07:00pm 16.4 11.3 10.7 69 3.0 NW 28 39 15 21 1010.4 1010.4 0.0
23/06:30pm 17.2 11.3 11.0 67 3.3 NW 33 48 18 26 1010.1 1010.1 0.0
23/06:00pm 18.5 12.5 10.8 61 4.2 NW 33 46 18 25 1009.7 1009.7 0.0
23/05:30pm 19.3 12.0 10.3 56 4.8 NW 39 48 21 26 1009.2 1009.2 0.0
23/05:00pm 19.4 11.7 10.1 55 5.0 NW 41 56 22 30 1009.0 1009.0 0.0
23/04:30pm 20.3 14.1 9.5 50 5.8 NW 32 46 17 25 1008.9 1008.9 0.0
23/04:00pm 21.1 15.2 10.6 51 5.7 NW 32 44 17 24 1008.6 1008.6 0.0
23/03:30pm 20.8 14.0 9.4 48 6.1 NW 35 44 19 24 1008.7 1008.7 0.0
23/03:00pm 22.0 15.8 9.5 45 6.7 NW 32 46 17 25 1008.8 1008.8 0.0
23/02:30pm 21.8 15.8 10.0 47 6.4 NW 32 43 17 23 1008.8 1008.8 0.0
23/02:13pm 21.4 15.6 9.6 47 6.3 NW 30 48 16 26 1008.9 1008.9 0.0
23/02:00pm 21.3 15.4 10.5 50 5.9 NW 32 43 17 23 1009.0 1009.0 0.0
23/01:30pm 22.4 17.3 10.5 47 6.5 NW 28 39 15 21 1009.2 1009.2 0.0
23/01:00pm 21.3 15.4 9.2 46 6.5 WNW 30 43 16 23 1009.1 1009.1 0.0
23/12:30pm 20.7 14.1 9.9 50 5.8 NW 35 50 19 27 1009.4 1009.4 0.0
23/12:17pm 21.5 15.2 10.9 51 5.8 NW 35 54 19 29 1009.6 1009.6 0.0
23/12:00pm 20.7 14.1 9.9 50 5.8 NW 35 50 19 27 1009.3 1009.3 0.0
23/11:49am 21.3 15.1 9.5 47 6.3 NW 32 50 17 27 1009.3 1009.3 0.0
23/11:30am 21.5 16.1 10.9 51 5.8 WNW 30 39 16 21 1009.1 1009.1 0.0
23/11:00am 20.6 14.7 10.4 52 5.5 NW 32 43 17 23 1009.2 1009.2 0.0
23/10:30am 20.2 14.2 10.9 55 5.1 NW 33 46 18 25 1009.1 1009.1 0.0
23/10:00am 20.1 15.1 11.1 56 4.9 NW 28 37 15 20 1009.0 1009.0 0.0
23/09:30am 19.7 14.4 11.2 58 4.7 NW 30 41 16 22 1008.8 1008.8 0.0
23/09:00am 18.7 13.6 12.0 65 3.7 WNW 30 41 16 22 1008.7 1008.7 0.0
23/08:30am 17.9 13.3 12.4 70 3.1 NW 28 35 15 19 1008.2 1008.2 0.0
23/08:00am 17.6 14.6 12.7 73 2.7 NNW 20 26 11 14 1007.7 1007.7 0.0
23/07:30am 16.3 12.5 12.5 78 2.1 WNW 24 35 13 19 1006.8 1006.8 0.0
23/07:00am 15.8 11.6 12.4 80 1.9 WNW 26 35 14 19 1006.2 1006.2 0.0
23/06:30am 15.7 11.5 12.3 80 1.9 WNW 26 39 14 21 1005.5 1005.5 0.0
23/06:00am 15.2 11.1 12.7 85 1.4 WNW 26 35 14 19 1004.8 1004.8 0.0
23/05:30am 15.4 11.1 13.1 86 1.3 W 28 39 15 21 1004.4 1004.4 0.0
23/05:00am 15.4 11.8 13.1 86 1.3 WNW 24 33 13 18 1004.2 1004.2 0.0
23/04:30am 15.5 11.6 13.3 87 1.2 WNW 26 35 14 19 1003.9 1003.9 0.0
23/04:00am 15.7 11.8 13.2 85 1.4 WNW 26 35 14 19 1003.8 1003.8 0.0
23/03:30am 15.6 12.9 13.6 88 1.1 WNW 20 28 11 15 1003.6 1003.6 0.0
23/03:00am 15.0 12.4 13.9 93 0.6 NNW 20 24 11 13 1003.6 1003.6 0.0
23/02:30am 14.2 13.6 13.4 95 0.4 WNW 9 15 5 8 1003.7 1003.7 0.0
23/02:00am 14.1 12.7 13.3 95 0.4 SSW 13 15 7 8 1003.9 1003.9 0.0
23/01:30am 14.1 13.4 13.3 95 0.4 W 9 15 5 8 1004.5 1004.5 0.0
23/01:00am 14.5 13.3 13.9 96 0.3 NNW 13 15 7 8 1004.4 1004.4 0.0
23/12:30am 14.5 13.7 13.9 96 0.3 N 11 15 6 8 1005.0 1005.0 0.0
23/12:00am 14.5 13.3 13.9 96 0.3 NNW 13 15 7 8 1006.3 1006.3 0.0
 
Date/Time
EDT
Temp
°C
App
Temp
°C
Dew
Point
Rel
Hum
%
Delta-T
°C
Wind Press
QNH
hPa
Press
MSL
hPa
Rain
since 9 am
mm
Dir
 
Spd
km/h
Gust
km/h
Spd
kts
Gust
kts
22/11:30pm 14.4 13.9 13.8 96 0.3 NW 9 13 5 7 1006.0 1006.0 0.0
22/11:00pm 14.6 13.8 14.0 96 0.3 NW 11 17 6 9 1006.5 1006.5 0.0
22/10:30pm 14.9 14.2 14.3 96 0.3 NW 11 13 6 7 1006.0 1006.0 0.0
22/10:00pm 15.2 13.8 14.6 96 0.3 N 15 19 8 10 1006.3 1006.3 0.0
22/09:30pm 15.2 14.2 14.6 96 0.3 N 13 15 7 8 1006.6 1006.6 0.0
22/09:00pm 15.1 14.8 14.3 95 0.5 N 9 13 5 7 1006.6 1006.6 0.0
22/08:30pm 15.2 13.3 14.2 94 0.6 N 17 19 9 10 1006.7 1006.7 0.0
22/08:00pm 15.4 13.6 14.4 94 0.6 N 17 20 9 11 1006.6 1006.6 0.0
22/07:30pm 15.7 13.0 14.6 93 0.6 N 22 26 12 14 1006.8 1006.8 0.0
22/07:00pm 15.9 13.1 14.4 91 0.9 N 22 28 12 15 1006.9 1006.9 0.0
22/06:30pm 16.1 11.8 14.5 90 0.9 NNE 30 33 16 18 1006.6 1006.6 0.0
22/06:00pm 16.4 11.7 14.4 88 1.1 NNE 32 35 17 19 1006.8 1006.8 0.0
22/05:30pm 16.6 12.3 14.4 87 1.3 NNE 30 32 16 17 1007.2 1007.2 0.0
22/05:00pm 16.8 12.8 14.1 84 1.5 NNE 28 32 15 17 1007.7 1007.7 0.0
22/04:30pm 18.0 14.7 13.9 77 2.3 N 24 32 13 17 1008.1 1008.1 0.0
22/04:00pm 18.9 16.1 14.2 74 2.7 N 22 26 12 14 1008.3 1008.3 0.0
22/03:30pm 19.2 17.0 13.4 69 3.3 NE 17 24 9 13 1008.5 1008.5 0.0
22/03:00pm 18.4 16.3 13.7 74 2.7 NE 17 19 9 10 1008.9 1008.9 0.0
22/02:30pm 17.5 14.6 12.8 74 2.6 NNE 20 24 11 13 1009.3 1009.3 0.0
22/02:00pm 17.1 13.5 12.0 72 2.8 NNE 22 28 12 15 1009.2 1009.2 0.0
22/01:30pm 17.6 13.8 12.5 72 2.8 NNE 24 32 13 17 1009.5 1009.5 0.0
22/01:00pm 17.7 12.9 11.7 68 3.3 NNE 28 33 15 18 1009.7 1009.7 0.0

Other Formats:

Comma delimited format used in spreadsheet applications
http://www.bom.gov.au/fwo/IDT60801/IDT60801.94983.axf

JavaScript Object Notation format (JSON) in row-major order
http://www.bom.gov.au/fwo/IDT60801/IDT60801.94983.json